Airway Heights, Washington
Current Conditions -  °F | °C
As of 7:53 PM on Saturday 25 Oct 2014 (Local Time) from KGEG Reporting Station
Broken Clouds Broken Clouds  
Wind Chill: 58°   Ceiling: 10000
Heat Index: 58°   Visibility: 10mi
Dew Point: 44°   Wind: 13mph
Humidity: 60%   Direction: 200°SSW
Pressure: 29.53"   Gusts: NA
Location:  47.64°N, 117.59°W
Report Text: KGEG 260253Z 20011KT 10SM FEW075 BKN100 14/07 A2953 RMK AO2 RAB14E23 SLP997 P0000 60000 T01440067 51000
Loading
Personal Weather Stations






























Interactive Weather Map
Tropical Storm Tracking
New forecast layout! Learn more

10-Day Weather Forecast

Advertisements
Track Severe Weather on mobile